Time;durP1;ratioP1;P1;durP2;ratioP2;P2;SDS_P1;SDS_P2;PMS_P1;PMS_P2;Temp;Humidity;BMP_temperature;BMP_pressure;BME280_temperature;BME280_humidity;BME280_pressure;Samples;Min_cycle;Max_cycle;Signal;HPM_P1;HPM_P2
2022/04/25 00:01:23;;;;;;;10.17;7.93;;;10.20;99.90;;;;;;5032219;28;20170;-71
2022/04/25 00:03:49;;;;;;;11.53;8.20;;;10.20;99.90;;;;;;5031690;28;20186;-70
2022/04/25 00:06:14;;;;;;;12.00;8.10;;;10.20;99.90;;;;;;5032144;28;20422;-71
2022/04/25 00:08:40;;;;;;;10.57;8.10;;;10.20;99.90;;;;;;5033730;28;20257;-69
2022/04/25 00:11:06;;;;;;;10.77;9.63;;;10.20;99.90;;;;;;5035768;28;20663;-71
2022/04/25 00:13:32;;;;;;;10.30;9.27;;;10.20;99.90;;;;;;5035428;28;20264;-70
2022/04/25 00:15:58;;;;;;;11.13;7.85;;;10.20;99.90;;;;;;5036084;28;20556;-70
2022/04/25 00:18:23;;;;;;;9.33;8.00;;;10.20;99.90;;;;;;5035743;28;20229;-70
2022/04/25 00:20:49;;;;;;;15.37;10.23;;;10.30;99.90;;;;;;5035627;28;20216;-71
2022/04/25 00:23:15;;;;;;;16.27;11.00;;;10.30;99.90;;;;;;5035294;28;20166;-71
2022/04/25 00:25:41;;;;;;;11.77;7.82;;;10.30;99.90;;;;;;5035945;28;20556;-70
2022/04/25 00:28:07;;;;;;;13.40;9.90;;;10.30;99.90;;;;;;5035475;28;20189;-70
2022/04/25 00:30:33;;;;;;;12.00;8.80;;;10.30;99.90;;;;;;5035658;28;20913;-71
2022/04/25 00:32:59;;;;;;;10.67;9.13;;;10.30;99.90;;;;;;5035485;28;20767;-70
2022/04/25 00:35:25;;;;;;;12.30;9.95;;;10.30;99.90;;;;;;5035173;28;20528;-71
2022/04/25 00:37:52;;;;;;;13.85;9.40;;;10.30;99.90;;;;;;5035425;28;20751;-69
2022/04/25 00:40:19;;;;;;;11.80;9.73;;;10.30;99.90;;;;;;5035316;28;20605;-70
2022/04/25 00:42:45;;;;;;;12.68;9.38;;;10.20;99.90;;;;;;5034891;28;20170;-70
2022/04/25 00:45:12;;;;;;;12.63;9.73;;;10.20;99.90;;;;;;5034797;28;20556;-70
2022/04/25 00:47:39;;;;;;;12.40;9.40;;;10.30;99.90;;;;;;5034119;28;20178;-69
2022/04/25 00:50:06;;;;;;;11.82;10.00;;;10.30;99.90;;;;;;5035321;28;20536;-70
2022/04/25 00:52:32;;;;;;;14.73;9.30;;;10.20;99.90;;;;;;5034009;28;20174;-70
2022/04/25 00:55:00;;;;;;;13.97;9.73;;;10.20;99.90;;;;;;5034824;28;20204;-70
2022/04/25 00:57:26;;;;;;;13.07;9.27;;;10.20;99.90;;;;;;5034812;28;20433;-70
2022/04/25 00:59:52;;;;;;;14.68;8.73;;;10.20;99.90;;;;;;5035439;28;20217;-70
2022/04/25 01:02:18;;;;;;;11.90;9.90;;;10.20;99.90;;;;;;5035189;28;20159;-70
2022/04/25 01:04:44;;;;;;;17.73;12.50;;;10.20;99.90;;;;;;5033227;28;20277;-69
2022/04/25 01:07:10;;;;;;;15.00;10.00;;;10.20;99.90;;;;;;5035378;28;20200;-71
2022/04/25 01:09:35;;;;;;;13.48;9.90;;;10.20;99.90;;;;;;5035081;28;20645;-70
2022/04/25 01:12:01;;;;;;;13.60;9.50;;;10.20;99.90;;;;;;5034572;28;20180;-71
2022/04/25 01:14:27;;;;;;;14.23;9.87;;;10.10;99.90;;;;;;5033146;28;20187;-70
2022/04/25 01:16:53;;;;;;;17.07;11.63;;;10.10;99.90;;;;;;5034878;28;20281;-70
2022/04/25 01:19:19;;;;;;;15.45;10.13;;;10.10;99.90;;;;;;5034011;28;20202;-71
2022/04/25 01:21:55;;;;;;;16.20;11.83;;;10.10;99.90;;;;;;5034204;28;20236;-69
2022/04/25 01:27:18;;;;;;;13.55;10.80;;;10.00;99.90;;;;;;5034461;28;20165;-68
2022/04/25 01:29:44;;;;;;;15.90;11.80;;;10.00;99.90;;;;;;5034627;28;20178;-71
2022/04/25 01:32:10;;;;;;;13.23;10.43;;;10.00;99.90;;;;;;5035076;28;20178;-70
2022/04/25 01:34:37;;;;;;;13.73;9.48;;;10.00;99.90;;;;;;5034325;28;20212;-70
2022/04/25 01:37:06;;;;;;;16.33;11.23;;;10.00;99.90;;;;;;5033116;28;20192;-69
2022/04/25 01:39:41;;;;;;;17.35;13.07;;;10.00;99.90;;;;;;5034587;28;20637;-71
2022/04/25 01:42:08;;;;;;;14.48;9.43;;;10.00;99.90;;;;;;5034136;28;20280;-70
2022/04/25 01:44:35;;;;;;;17.05;11.23;;;10.00;99.90;;;;;;5033929;28;20174;-73
2022/04/25 01:47:01;;;;;;;13.93;11.55;;;10.00;99.90;;;;;;5034120;28;20672;-70
2022/04/25 01:49:29;;;;;;;14.63;11.55;;;9.90;99.90;;;;;;5034276;28;20510;-70
2022/04/25 01:51:56;;;;;;;15.38;11.75;;;10.00;99.90;;;;;;5034040;28;20178;-71
2022/04/25 01:54:26;;;;;;;17.38;11.93;;;10.00;99.90;;;;;;5033769;28;20510;-69
2022/04/25 01:56:55;;;;;;;13.52;10.90;;;10.00;99.90;;;;;;5034186;28;20232;-69
2022/04/25 01:59:22;;;;;;;12.18;10.90;;;10.00;99.90;;;;;;5033997;28;20229;-69
2022/04/25 02:01:49;;;;;;;13.45;10.48;;;10.00;99.90;;;;;;5033793;28;20249;-68
2022/04/25 02:04:15;;;;;;;17.10;12.50;;;10.00;99.90;;;;;;5033496;28;20186;-71
2022/04/25 02:06:40;;;;;;;17.17;11.00;;;10.00;99.90;;;;;;5032708;28;20197;-70
2022/04/25 02:09:06;;;;;;;15.00;11.47;;;10.00;99.90;;;;;;5034141;28;20652;-71
2022/04/25 02:11:32;;;;;;;16.67;12.10;;;10.00;99.90;;;;;;5033778;28;20174;-71
2022/04/25 02:13:58;;;;;;;14.80;11.68;;;9.90;99.90;;;;;;5033567;28;20516;-70
2022/04/25 02:16:25;;;;;;;16.17;12.10;;;9.90;99.90;;;;;;5033580;28;20186;-69
2022/04/25 02:18:52;;;;;;;14.50;11.38;;;9.90;99.90;;;;;;5033656;28;20232;-69
2022/04/25 02:21:18;;;;;;;14.00;10.60;;;9.90;99.90;;;;;;5033734;28;20194;-70
2022/04/25 02:23:44;;;;;;;14.35;10.65;;;9.90;99.90;;;;;;5033374;28;20173;-69
2022/04/25 02:26:10;;;;;;;14.27;10.60;;;9.90;99.90;;;;;;5033433;28;20666;-68
2022/04/25 02:28:37;;;;;;;14.17;10.90;;;9.90;99.90;;;;;;5033523;28;20444;-71
2022/04/25 02:31:04;;;;;;;18.23;12.60;;;9.90;99.90;;;;;;5033239;28;20197;-68
2022/04/25 02:33:32;;;;;;;15.38;9.95;;;9.90;99.90;;;;;;5032723;28;20265;-69
2022/04/25 02:35:58;;;;;;;17.30;11.77;;;9.90;99.90;;;;;;5033253;28;20736;-70
2022/04/25 02:38:24;;;;;;;15.80;12.68;;;9.90;99.90;;;;;;5033429;28;20206;-69
2022/04/25 02:41:04;;;;;;;15.67;12.47;;;9.90;99.90;;;;;;5033457;28;20177;-70
2022/04/25 02:43:31;;;;;;;17.08;11.60;;;9.90;99.90;;;;;;5032885;28;20169;-68
2022/04/25 02:45:56;;;;;;;14.70;10.80;;;9.80;99.90;;;;;;5032987;28;20194;-71
2022/04/25 02:48:22;;;;;;;16.33;11.13;;;9.90;99.90;;;;;;5033263;28;20174;-68
2022/04/25 02:50:48;;;;;;;17.00;12.30;;;9.80;99.90;;;;;;5033512;28;20640;-68
2022/04/25 02:53:14;;;;;;;13.90;11.17;;;9.80;99.90;;;;;;5032912;28;20170;-68
2022/04/25 02:55:40;;;;;;;13.57;11.25;;;9.80;99.90;;;;;;5032853;28;20198;-67
2022/04/25 02:58:06;;;;;;;11.47;10.27;;;9.80;99.90;;;;;;5032870;28;20522;-69
2022/04/25 03:00:31;;;;;;;16.50;11.13;;;9.80;99.90;;;;;;5033004;28;20619;-68
2022/04/25 03:02:57;;;;;;;13.97;10.20;;;9.80;99.90;;;;;;5032454;28;20722;-69
2022/04/25 03:05:22;;;;;;;14.00;9.43;;;9.80;99.90;;;;;;5032749;28;20277;-69
2022/04/25 03:07:48;;;;;;;14.80;11.50;;;9.80;99.90;;;;;;5033032;28;20517;-69
2022/04/25 03:10:14;;;;;;;15.80;10.17;;;9.80;99.90;;;;;;5032855;28;20170;-70
2022/04/25 03:12:40;;;;;;;10.38;9.32;;;9.80;99.90;;;;;;5032803;28;20204;-69
2022/04/25 03:15:06;;;;;;;11.27;9.90;;;9.80;99.90;;;;;;5031199;28;20225;-69
2022/04/25 03:17:32;;;;;;;11.35;8.13;;;9.80;99.90;;;;;;5032621;28;20421;-68
2022/04/25 03:19:57;;;;;;;12.30;9.57;;;9.80;99.90;;;;;;5032788;28;20247;-68
2022/04/25 03:22:24;;;;;;;15.83;9.93;;;9.80;99.90;;;;;;5032865;28;20201;-68
2022/04/25 03:24:50;;;;;;;14.25;10.75;;;9.80;99.90;;;;;;5032260;28;20528;-69
2022/04/25 03:27:15;;;;;;;12.20;9.67;;;9.80;99.90;;;;;;5032742;28;20209;-70
2022/04/25 03:29:41;;;;;;;16.60;10.40;;;9.90;99.90;;;;;;5032708;28;20261;-70
2022/04/25 03:32:07;;;;;;;15.30;11.00;;;9.80;99.90;;;;;;5032573;28;20185;-70
2022/04/25 03:34:34;;;;;;;14.80;12.30;;;9.80;99.90;;;;;;5032390;28;20227;-69
2022/04/25 03:37:00;;;;;;;14.57;11.32;;;9.80;99.90;;;;;;5032593;28;20221;-70
2022/04/25 03:39:25;;;;;;;13.77;10.50;;;9.80;99.90;;;;;;5032768;28;20617;-69
2022/04/25 03:41:53;;;;;;;13.93;10.13;;;9.80;99.90;;;;;;5032785;28;20224;-70
2022/04/25 03:44:18;;;;;;;15.27;10.00;;;9.80;99.90;;;;;;5034742;28;20300;-70
2022/04/25 03:46:44;;;;;;;11.90;10.70;;;9.80;99.90;;;;;;5036265;28;20679;-70
2022/04/25 03:49:09;;;;;;;10.27;9.00;;;9.70;99.90;;;;;;5036734;28;20181;-69
2022/04/25 03:51:35;;;;;;;13.57;10.90;;;9.70;99.90;;;;;;5036461;28;20341;-69
2022/04/25 03:54:00;;;;;;;12.43;10.07;;;9.60;99.90;;;;;;5036025;28;20166;-69
2022/04/25 03:59:10;;;;;;;12.18;9.75;;;9.60;99.90;;;;;;5036507;28;20224;-69
2022/04/25 04:01:36;;;;;;;16.13;11.40;;;9.60;99.90;;;;;;5034685;28;20174;-69
2022/04/25 04:04:05;;;;;;;12.00;10.60;;;9.60;99.90;;;;;;5035636;28;20263;-69
2022/04/25 04:06:32;;;;;;;12.48;10.00;;;9.60;99.90;;;;;;5035974;28;20201;-69
2022/04/25 04:08:58;;;;;;;10.25;8.57;;;9.60;99.90;;;;;;5036031;28;20532;-68
2022/04/25 04:11:45;;;;;;;12.63;9.67;;;9.60;99.90;;;;;;5035028;28;20194;-69
2022/04/25 04:14:09;;;;;;;18.60;13.32;;;9.70;99.90;;;;;;5035296;28;20486;-68
2022/04/25 04:16:35;;;;;;;13.73;10.30;;;9.80;99.90;;;;;;5035786;28;20193;-69
2022/04/25 04:19:00;;;;;;;13.60;10.03;;;9.70;99.90;;;;;;5035746;28;20201;-69
2022/04/25 04:21:26;;;;;;;17.60;12.30;;;9.70;99.90;;;;;;5035852;28;20176;-68
2022/04/25 04:23:51;;;;;;;15.23;11.33;;;9.80;99.90;;;;;;5035705;28;20212;-69
2022/04/25 04:26:17;;;;;;;13.27;10.10;;;9.80;99.90;;;;;;5035815;28;20190;-69
2022/04/25 04:28:43;;;;;;;16.17;12.60;;;9.80;99.90;;;;;;5035805;28;20645;-69
2022/04/25 04:31:08;;;;;;;16.73;12.63;;;9.80;99.90;;;;;;5035850;28;20174;-69
2022/04/25 04:33:34;;;;;;;18.30;12.93;;;9.80;99.90;;;;;;5035293;28;20229;-70
2022/04/25 04:36:18;;;;;;;14.97;9.30;;;9.70;99.90;;;;;;5035584;28;20236;-69
2022/04/25 04:38:44;;;;;;;16.30;10.77;;;9.70;99.90;;;;;;5035029;28;20564;-68
2022/04/25 04:41:10;;;;;;;14.77;11.73;;;9.80;99.90;;;;;;5035327;28;20185;-69
2022/04/25 04:43:36;;;;;;;13.53;10.77;;;9.80;99.90;;;;;;5034614;28;20257;-68
2022/04/25 04:46:01;;;;;;;16.40;10.97;;;9.80;99.90;;;;;;5035124;28;20683;-68
2022/04/25 04:48:27;;;;;;;14.50;11.53;;;9.90;99.90;;;;;;5035577;28;20175;-68
2022/04/25 04:50:55;;;;;;;15.77;12.50;;;9.90;99.90;;;;;;5035516;28;20498;-68
2022/04/25 04:53:22;;;;;;;13.50;10.00;;;9.90;99.90;;;;;;5035047;28;20166;-69
2022/04/25 04:55:48;;;;;;;17.90;14.02;;;10.00;99.90;;;;;;5035222;28;20201;-69
2022/04/25 04:58:13;;;;;;;19.77;12.13;;;10.00;99.90;;;;;;5034862;28;20193;-69
2022/04/25 05:00:44;;;;;;;19.40;14.90;;;10.20;99.90;;;;;;5035088;28;20224;-68
2022/04/25 05:03:13;;;;;;;18.48;13.00;;;10.20;99.90;;;;;;5034493;28;20190;-69
2022/04/25 05:05:40;;;;;;;11.73;9.05;;;10.30;99.90;;;;;;5035177;28;20205;-69
2022/04/25 05:08:05;;;;;;;19.15;13.18;;;10.30;99.90;;;;;;5034708;28;20763;-70
2022/04/25 05:10:31;;;;;;;18.37;12.67;;;10.40;99.90;;;;;;5034801;28;20223;-70
2022/04/25 05:12:57;;;;;;;16.83;11.07;;;10.50;99.90;;;;;;5034278;28;20185;-69
2022/04/25 05:15:23;;;;;;;17.08;13.30;;;10.50;99.90;;;;;;5034424;28;20182;-69
2022/04/25 05:17:52;;;;;;;18.13;12.52;;;10.50;99.90;;;;;;5034389;28;20209;-68
2022/04/25 05:20:19;;;;;;;18.27;13.40;;;10.50;99.90;;;;;;5034697;28;20163;-69
2022/04/25 05:22:47;;;;;;;18.60;13.35;;;10.50;99.90;;;;;;5034066;28;20185;-69
2022/04/25 05:25:17;;;;;;;18.05;12.43;;;10.50;99.90;;;;;;5034319;28;20186;-68
2022/04/25 05:27:45;;;;;;;15.48;11.60;;;10.50;99.90;;;;;;5034042;28;20171;-68
2022/04/25 05:30:12;;;;;;;15.38;12.48;;;10.50;99.90;;;;;;5034598;28;20170;-69
2022/04/25 05:32:57;;;;;;;16.77;10.80;;;10.50;99.90;;;;;;5034208;28;20220;-69
2022/04/25 05:35:26;;;;;;;15.35;11.70;;;10.60;99.90;;;;;;5027970;28;20282;-69
2022/04/25 05:37:52;;;;;;;14.73;11.50;;;10.60;99.90;;;;;;5027447;28;20287;-69
2022/04/25 05:40:20;;;;;;;15.77;12.17;;;10.70;99.90;;;;;;5033396;28;20208;-69
2022/04/25 05:42:47;;;;;;;13.70;10.00;;;10.70;99.90;;;;;;5033549;28;20186;-69
2022/04/25 05:45:22;;;;;;;18.38;11.05;;;10.80;99.90;;;;;;5032668;28;20556;-72
2022/04/25 05:47:55;;;;;;;17.63;12.02;;;10.80;99.90;;;;;;5033737;28;20170;-69
2022/04/25 05:53:06;;;;;;;17.08;10.80;;;10.90;99.90;;;;;;5034081;28;20549;-68
2022/04/25 05:55:32;;;;;;;17.00;12.80;;;11.00;99.90;;;;;;5033592;28;20194;-69
2022/04/25 05:57:59;;;;;;;15.88;11.70;;;11.10;99.90;;;;;;5033094;28;20208;-68
2022/04/25 06:00:25;;;;;;;19.45;12.35;;;11.10;99.90;;;;;;5033098;28;20189;-67
2022/04/25 06:02:51;;;;;;;17.85;12.75;;;11.20;99.90;;;;;;5032189;28;20673;-69
2022/04/25 06:05:17;;;;;;;17.90;12.17;;;11.20;99.90;;;;;;5033522;28;20349;-69
2022/04/25 06:07:45;;;;;;;18.80;13.53;;;11.30;99.90;;;;;;5032008;28;20248;-68
2022/04/25 06:10:12;;;;;;;14.90;8.88;;;11.50;99.90;;;;;;5017172;28;20422;-69
2022/04/25 06:12:42;;;;;;;18.17;11.88;;;11.70;99.90;;;;;;5032941;28;21010;-69
2022/04/25 06:15:09;;;;;;;18.43;12.67;;;12.00;99.90;;;;;;5033446;28;20194;-69
2022/04/25 06:17:36;;;;;;;14.73;12.27;;;12.30;99.90;;;;;;5033688;28;20410;-71
2022/04/25 06:20:02;;;;;;;13.63;11.17;;;12.60;99.90;;;;;;5033448;28;20465;-69
2022/04/25 06:22:28;;;;;;;15.20;10.80;;;13.00;99.90;;;;;;5031035;28;20429;-67
2022/04/25 06:24:54;;;;;;;14.93;11.07;;;13.50;99.90;;;;;;5032179;28;20428;-67
2022/04/25 06:27:19;;;;;;;9.93;8.93;;;14.00;99.90;;;;;;5033470;28;20178;-67
2022/04/25 06:29:46;;;;;;;12.53;10.70;;;14.40;99.90;;;;;;5032836;28;20177;-67
2022/04/25 06:32:12;;;;;;;11.37;10.13;;;14.80;99.90;;;;;;5016190;28;20213;-67
2022/04/25 06:34:38;;;;;;;11.80;9.70;;;15.10;99.90;;;;;;5025801;28;20981;-66
2022/04/25 06:37:05;;;;;;;12.70;9.73;;;15.10;99.90;;;;;;5026452;28;21066;-69
2022/04/25 06:39:31;;;;;;;10.53;8.80;;;15.00;99.90;;;;;;5029425;28;20458;-66
2022/04/25 06:41:56;;;;;;;12.70;9.50;;;15.00;99.90;;;;;;5032413;28;20417;-69
2022/04/25 06:44:22;;;;;;;14.87;8.73;;;15.00;99.90;;;;;;5032845;28;20662;-68
2022/04/25 06:46:48;;;;;;;11.27;9.23;;;15.20;99.90;;;;;;5031066;28;20797;-69
2022/04/25 06:49:25;;;;;;;12.57;9.03;;;15.30;99.90;;;;;;5032777;28;20181;-69
2022/04/25 06:51:56;;;;;;;10.53;8.83;;;15.20;99.90;;;;;;5033019;28;20189;-67
2022/04/25 06:54:26;;;;;;;12.77;10.63;;;15.10;99.90;;;;;;5032344;28;20925;-67
2022/04/25 06:56:54;;;;;;;10.00;8.73;;;15.10;99.90;;;;;;5032584;28;20782;-68
2022/04/25 06:59:20;;;;;;;11.13;9.63;;;15.10;99.90;;;;;;5032670;28;20925;-68
2022/04/25 07:01:47;;;;;;;11.83;10.60;;;15.10;99.90;;;;;;5032155;28;20506;-67
2022/04/25 07:04:13;;;;;;;11.17;10.00;;;15.30;99.90;;;;;;5032398;28;20433;-68
2022/04/25 07:06:39;;;;;;;10.83;8.80;;;15.50;99.90;;;;;;5032829;28;20436;-69
2022/04/25 07:09:06;;;;;;;13.53;9.90;;;15.90;99.90;;;;;;5030425;28;20541;-69
2022/04/25 07:11:32;;;;;;;13.10;8.77;;;16.20;99.90;;;;;;5031840;28;20465;-69
2022/04/25 07:13:58;;;;;;;11.00;9.17;;;16.40;99.90;;;;;;5038128;28;20921;-68
2022/04/25 07:16:27;;;;;;;10.60;9.13;;;16.30;99.90;;;;;;5043162;28;20947;-68
2022/04/25 07:18:54;;;;;;;9.87;7.27;;;16.40;99.90;;;;;;5036232;28;20456;-67
2022/04/25 07:29:32;;;;;;;9.20;7.40;;;16.30;99.90;;;;;;5035301;28;20481;-69
2022/04/25 07:31:58;;;;;;;12.40;10.40;;;16.20;99.90;;;;;;5036356;28;20919;-70
2022/04/25 07:34:24;;;;;;;9.50;8.20;;;16.30;99.90;;;;;;5034859;28;20204;-70
2022/04/25 07:36:53;;;;;;;8.77;7.53;;;16.20;99.90;;;;;;5035238;28;20826;-70
2022/04/25 07:39:27;;;;;;;11.83;9.70;;;16.10;99.90;;;;;;5020305;28;20197;-70
2022/04/25 07:41:52;;;;;;;10.20;9.20;;;15.70;99.90;;;;;;5033328;28;20419;-70
2022/04/25 07:44:18;;;;;;;9.77;8.40;;;15.40;99.90;;;;;;5035642;28;20521;-70
2022/04/25 07:46:45;;;;;;;10.47;9.27;;;15.30;99.90;;;;;;5035117;28;20203;-70
2022/04/25 07:49:12;;;;;;;10.17;8.90;;;15.20;99.90;;;;;;5034668;28;20181;-72
2022/04/25 07:51:42;;;;;;;13.27;10.13;;;15.20;99.90;;;;;;5035275;28;20828;-73
2022/04/25 07:54:09;;;;;;;11.07;8.67;;;15.30;99.90;;;;;;5035619;28;20440;-71
2022/04/25 07:56:36;;;;;;;13.20;9.70;;;15.30;99.90;;;;;;5035899;28;20431;-70
2022/04/25 07:59:02;;;;;;;11.27;8.03;;;15.30;99.90;;;;;;5034125;28;20479;-71
2022/04/25 08:01:33;;;;;;;11.10;9.20;;;15.30;99.90;;;;;;5035497;28;20852;-73
2022/04/25 08:04:02;;;;;;;10.50;7.53;;;16.00;99.90;;;;;;5034565;28;20833;-72
2022/04/25 08:06:28;;;;;;;10.70;8.83;;;17.20;99.90;;;;;;5035495;28;20765;-72
2022/04/25 08:08:55;;;;;;;8.47;7.53;;;18.40;99.90;;;;;;5035260;28;20389;-72
2022/04/25 08:11:21;;;;;;;10.60;8.93;;;19.20;99.90;;;;;;5035146;28;20683;-72
2022/04/25 08:19:16;;;;;;;10.33;8.70;;;18.70;97.40;;;;;;5035088;28;20434;-69
2022/04/25 08:21:44;;;;;;;10.80;9.20;;;18.30;99.00;;;;;;5035021;28;20413;-73
2022/04/25 08:24:10;;;;;;;9.10;7.97;;;18.20;99.60;;;;;;5026995;28;20313;-71
2022/04/25 08:26:36;;;;;;;8.67;6.80;;;18.00;98.70;;;;;;5022366;28;20438;-70
2022/04/25 08:29:02;;;;;;;7.40;6.70;;;17.80;98.30;;;;;;5032387;28;20413;-71
2022/04/25 08:31:28;;;;;;;7.53;6.90;;;18.10;96.50;;;;;;5035116;28;20179;-70
2022/04/25 08:33:55;;;;;;;8.10;6.97;;;18.50;98.00;;;;;;5033892;28;20407;-71
2022/04/25 08:36:21;;;;;;;7.57;6.20;;;18.60;97.30;;;;;;5033793;28;20449;-71
2022/04/25 08:38:47;;;;;;;8.80;7.50;;;18.60;95.10;;;;;;5033467;28;20476;-70
2022/04/25 08:41:21;;;;;;;7.27;6.57;;;18.60;95.40;;;;;;5020740;28;20398;-70
2022/04/25 08:43:52;;;;;;;8.67;7.40;;;18.50;96.00;;;;;;5032225;28;20416;-71
2022/04/25 08:46:21;;;;;;;8.10;7.20;;;18.60;97.20;;;;;;5034643;28;20404;-70
2022/04/25 08:48:47;;;;;;;9.90;7.57;;;18.80;98.00;;;;;;5033884;28;20435;-70
2022/04/25 08:51:15;;;;;;;7.30;6.57;;;19.00;97.90;;;;;;5034771;28;20427;-70
2022/04/25 08:53:43;;;;;;;7.87;7.13;;;19.40;97.60;;;;;;5034306;28;20419;-72
2022/04/25 08:56:09;;;;;;;8.57;7.77;;;19.80;96.20;;;;;;5034834;28;20826;-72
2022/04/25 08:58:39;;;;;;;23.57;7.53;;;20.60;95.90;;;;;;5033730;28;20435;-72
2022/04/25 09:01:06;;;;;;;8.40;7.07;;;21.50;93.40;;;;;;5034640;28;20469;-72
2022/04/25 09:03:31;;;;;;;7.10;6.50;;;22.40;92.90;;;;;;5032601;28;20425;-73
2022/04/25 09:05:58;;;;;;;7.73;7.00;;;23.50;91.60;;;;;;5034051;28;20446;-71
2022/04/25 09:08:24;;;;;;;10.10;7.83;;;24.40;89.10;;;;;;5033551;28;20178;-72
2022/04/25 09:10:50;;;;;;;9.17;8.37;;;25.10;87.50;;;;;;5034497;28;20920;-73
2022/04/25 09:13:16;;;;;;;9.53;8.63;;;25.00;81.20;;;;;;5032204;28;20437;-72
2022/04/25 09:15:41;;;;;;;10.80;8.70;;;24.20;82.70;;;;;;5034059;28;20461;-72
2022/04/25 09:18:09;;;;;;;9.70;8.70;;;23.20;80.90;;;;;;5032597;28;20845;-72
2022/04/25 09:20:35;;;;;;;8.43;7.63;;;22.00;82.80;;;;;;5032304;28;20198;-73
2022/04/25 09:23:00;;;;;;;8.83;8.03;;;21.10;89.90;;;;;;5029914;28;20388;-72
2022/04/25 09:25:26;;;;;;;10.40;8.47;;;20.30;89.50;;;;;;5033059;28;20194;-71
2022/04/25 09:28:13;;;;;;;7.43;6.80;;;19.90;90.60;;;;;;5034639;28;20220;-72
2022/04/25 09:30:39;;;;;;;8.47;7.57;;;19.50;91.80;;;;;;5033456;28;20174;-71
2022/04/25 09:33:21;;;;;;;8.10;7.30;;;19.10;93.80;;;;;;5033232;28;20898;-73
2022/04/25 09:35:54;;;;;;;7.77;7.07;;;18.80;94.10;;;;;;5033704;28;20805;-72
2022/04/25 09:38:39;;;;;;;7.50;6.70;;;18.60;94.60;;;;;;5033066;28;20449;-71
2022/04/25 09:41:08;;;;;;;7.30;6.60;;;18.60;95.00;;;;;;5032832;28;20440;-73
2022/04/25 09:43:36;;;;;;;8.03;7.23;;;18.60;94.50;;;;;;5031019;28;20970;-72
2022/04/25 09:46:13;;;;;;;9.20;8.30;;;18.50;94.60;;;;;;5033042;28;20415;-72
2022/04/25 09:48:41;;;;;;;10.07;8.80;;;18.30;95.10;;;;;;5033077;28;20741;-70
2022/04/25 09:51:08;;;;;;;8.40;7.50;;;18.20;95.80;;;;;;5030315;28;20428;-71
2022/04/25 09:53:50;;;;;;;7.60;6.90;;;18.30;95.70;;;;;;5033569;28;20507;-72
2022/04/25 09:56:27;;;;;;;7.37;6.50;;;18.80;95.30;;;;;;5029557;28;20766;-70
2022/04/25 09:59:09;;;;;;;8.30;7.50;;;19.40;93.10;;;;;;5028748;28;20490;-72
2022/04/25 10:01:37;;;;;;;7.43;6.73;;;20.00;92.10;;;;;;5044215;28;20388;-70
2022/04/25 10:04:05;;;;;;;7.80;7.00;;;20.40;93.10;;;;;;5026559;28;20553;-71
2022/04/25 10:06:33;;;;;;;7.17;6.47;;;20.90;91.00;;;;;;5033353;28;20403;-70
2022/04/25 10:09:04;;;;;;;7.60;6.90;;;21.00;91.00;;;;;;5031736;28;20783;-70
2022/04/25 10:11:34;;;;;;;6.90;6.30;;;20.80;90.60;;;;;;5018580;28;20890;-72
2022/04/25 10:14:01;;;;;;;7.60;6.90;;;21.20;90.70;;;;;;5032938;28;20477;-71
2022/04/25 10:16:28;;;;;;;6.50;5.90;;;22.00;90.60;;;;;;5033651;28;20430;-69
2022/04/25 10:18:54;;;;;;;6.80;6.20;;;22.50;88.10;;;;;;5032519;28;20471;-71
2022/04/25 10:21:22;;;;;;;6.27;5.67;;;22.90;87.70;;;;;;5032620;28;20514;-70
2022/04/25 10:23:49;;;;;;;8.47;7.53;;;23.00;85.10;;;;;;5032627;28;20384;-73
2022/04/25 10:26:15;;;;;;;6.93;6.33;;;23.20;84.40;;;;;;5033036;28;20411;-70
2022/04/25 10:28:52;;;;;;;7.60;6.43;;;23.30;84.20;;;;;;5032100;28;20809;-68
2022/04/25 10:31:38;;;;;;;6.00;5.40;;;23.70;80.40;;;;;;5032030;28;20265;-69
2022/04/25 10:34:04;;;;;;;7.27;6.57;;;24.20;78.60;;;;;;5032027;28;20819;-70
2022/04/25 10:36:39;;;;;;;7.20;6.50;;;24.20;77.80;;;;;;5032144;28;20423;-69
2022/04/25 10:39:23;;;;;;;7.33;6.60;;;23.10;80.20;;;;;;5031609;28;20441;-69
2022/04/25 10:44:43;;;;;;;8.13;7.30;;;22.60;82.30;;;;;;5026011;28;20396;-70
2022/04/25 10:47:11;;;;;;;7.30;6.70;;;22.20;81.40;;;;;;5021617;28;20419;-70
2022/04/25 10:49:43;;;;;;;7.37;6.60;;;21.90;84.60;;;;;;5033140;28;20385;-71
2022/04/25 10:52:33;;;;;;;7.30;6.60;;;21.80;85.20;;;;;;5032808;28;20430;-71
2022/04/25 10:55:46;;;;;;;7.30;6.60;;;21.50;83.90;;;;;;5032974;28;20432;-72
2022/04/25 10:58:14;;;;;;;6.70;6.10;;;21.00;85.40;;;;;;5031943;28;20442;-70
2022/04/25 11:00:45;;;;;;;8.37;7.50;;;20.60;86.70;;;;;;5032877;28;20396;-71
2022/04/25 11:03:23;;;;;;;7.10;6.40;;;19.80;89.10;;;;;;5032004;28;20412;-73
2022/04/25 11:05:57;;;;;;;9.57;7.17;;;19.40;90.00;;;;;;5032695;28;20392;-70
2022/04/25 11:08:28;;;;;;;7.83;7.13;;;18.90;90.30;;;;;;5032256;28;20481;-71
2022/04/25 11:10:57;;;;;;;8.23;7.43;;;18.20;90.30;;;;;;5030779;28;20919;-72
2022/04/25 11:13:26;;;;;;;7.57;6.87;;;17.70;91.00;;;;;;5030250;28;20749;-71
2022/04/25 11:15:53;;;;;;;12.73;8.23;;;17.60;91.50;;;;;;5031620;28;20847;-70
2022/04/25 11:18:35;;;;;;;6.90;6.20;;;17.30;92.00;;;;;;5032541;28;20431;-69
2022/04/25 11:21:05;;;;;;;10.20;7.53;;;17.30;92.20;;;;;;5032532;28;20398;-71
2022/04/25 11:23:35;;;;;;;7.03;6.30;;;17.20;94.50;;;;;;5031863;28;20827;-72
2022/04/25 11:26:04;;;;;;;8.20;6.77;;;17.10;94.80;;;;;;5015794;28;20434;-71
2022/04/25 11:28:31;;;;;;;8.43;7.43;;;17.10;95.20;;;;;;5031452;28;20399;-71
2022/04/25 11:31:21;;;;;;;6.43;5.77;;;17.20;95.40;;;;;;5030704;28;20403;-73
2022/04/25 11:33:49;;;;;;;7.57;6.83;;;17.20;94.80;;;;;;5026308;28;20419;-69
2022/04/25 11:36:15;;;;;;;7.10;6.37;;;17.30;95.00;;;;;;5032300;28;20786;-69
2022/04/25 11:41:29;;;;;;;8.50;7.40;;;17.60;94.10;;;;;;5032750;28;20408;-71
2022/04/25 11:43:55;;;;;;;7.80;7.00;;;17.70;93.20;;;;;;5030723;28;20928;-68
2022/04/25 11:46:22;;;;;;;7.17;6.37;;;17.70;93.00;;;;;;5032248;28;20403;-71
2022/04/25 11:48:48;;;;;;;7.53;6.83;;;17.70;93.60;;;;;;5032224;28;20421;-71
2022/04/25 11:51:22;;;;;;;7.10;6.23;;;17.70;93.50;;;;;;5032008;28;20391;-71
2022/04/25 11:53:47;;;;;;;8.33;7.20;;;17.60;93.50;;;;;;5032119;28;20889;-71
2022/04/25 11:56:14;;;;;;;6.73;6.13;;;17.50;93.90;;;;;;5032634;28;20421;-71
2022/04/25 11:58:41;;;;;;;9.00;6.40;;;17.50;95.30;;;;;;5032378;28;20206;-71
2022/04/25 12:01:08;;;;;;;9.37;7.30;;;17.40;94.70;;;;;;5032450;28;20404;-68
2022/04/25 12:03:34;;;;;;;7.13;6.43;;;17.30;94.70;;;;;;5031152;28;20419;-70
2022/04/25 12:06:13;;;;;;;7.23;6.50;;;17.30;94.40;;;;;;5034913;28;20461;-69
2022/04/25 12:17:05;;;;;;;8.57;7.77;;;16.90;96.70;;;;;;5034993;28;20644;-68
2022/04/25 12:19:33;;;;;;;10.43;7.87;;;16.90;96.40;;;;;;5035643;28;20554;-70
2022/04/25 12:22:05;;;;;;;9.63;8.27;;;16.70;97.50;;;;;;5035186;28;20417;-70
2022/04/25 12:24:31;;;;;;;9.00;8.10;;;16.60;97.90;;;;;;5035621;28;20476;-72
2022/04/25 12:26:56;;;;;;;8.70;7.87;;;16.40;98.40;;;;;;5035267;28;20521;-69
2022/04/25 12:29:22;;;;;;;9.00;8.13;;;16.20;98.80;;;;;;5031244;28;20749;-70
2022/04/25 12:31:48;;;;;;;8.90;8.10;;;16.20;99.70;;;;;;5035132;28;20186;-71
2022/04/25 12:34:19;;;;;;;9.60;8.60;;;16.00;99.90;;;;;;5035095;28;20209;-68
2022/04/25 12:36:58;;;;;;;9.50;8.43;;;15.80;99.90;;;;;;5034810;28;20484;-69
2022/04/25 12:39:27;;;;;;;16.23;9.27;;;15.60;99.90;;;;;;5035030;28;20508;-70
2022/04/25 12:41:59;;;;;;;9.17;8.27;;;15.50;99.90;;;;;;5034808;28;20811;-69
2022/04/25 12:44:28;;;;;;;11.70;10.43;;;15.40;99.90;;;;;;5066197;28;20425;-70
2022/04/25 12:47:05;;;;;;;10.93;9.43;;;15.40;99.90;;;;;;5034999;28;20444;-69
2022/04/25 12:49:46;;;;;;;8.23;7.47;;;15.40;99.90;;;;;;5035514;28;20412;-70
2022/04/25 12:52:13;;;;;;;9.77;8.57;;;15.40;99.90;;;;;;5035521;28;20443;-68
2022/04/25 12:54:42;;;;;;;10.30;8.40;;;15.40;99.90;;;;;;5035188;28;20807;-68
2022/04/25 12:57:15;;;;;;;9.77;8.87;;;15.40;99.90;;;;;;5035309;28;20487;-68
2022/04/25 12:59:48;;;;;;;10.73;9.23;;;15.50;99.90;;;;;;5034890;28;20461;-68
2022/04/25 13:02:17;;;;;;;12.70;9.30;;;15.50;99.90;;;;;;5035602;28;20827;-68
2022/04/25 13:04:57;;;;;;;10.20;9.10;;;15.60;99.90;;;;;;5034676;28;20444;-69
2022/04/25 13:07:30;;;;;;;10.17;9.27;;;15.80;99.90;;;;;;5035169;28;20418;-67
2022/04/25 13:09:57;;;;;;;10.80;7.87;;;15.90;99.90;;;;;;5034862;28;20464;-67
2022/04/25 13:12:34;;;;;;;12.97;9.40;;;16.00;99.90;;;;;;5034809;28;20428;-67
2022/04/25 13:15:05;;;;;;;12.00;8.93;;;16.10;99.90;;;;;;5034084;28;20441;-67
2022/04/25 13:17:31;;;;;;;11.37;9.80;;;16.00;99.90;;;;;;5034801;28;20420;-67
2022/04/25 13:19:56;;;;;;;15.87;11.03;;;16.00;99.90;;;;;;5034969;28;20588;-67